sensor_id;sensor_type;location;lat;lon;timestamp;P1;durP1;ratioP1;P2;durP2;ratioP2
5157;SDS011;2598;52.364;9.772;2023-09-19T00:00:57;5.57;;;1.20;;
5157;SDS011;2598;52.364;9.772;2023-09-19T00:03:23;5.33;;;1.00;;
5157;SDS011;2598;52.364;9.772;2023-09-19T00:05:50;3.70;;;1.00;;
5157;SDS011;2598;52.364;9.772;2023-09-19T00:08:16;6.17;;;1.00;;
5157;SDS011;2598;52.364;9.772;2023-09-19T00:10:47;4.77;;;1.10;;
5157;SDS011;2598;52.364;9.772;2023-09-19T00:13:13;3.60;;;0.90;;
5157;SDS011;2598;52.364;9.772;2023-09-19T00:15:41;5.47;;;1.13;;
5157;SDS011;2598;52.364;9.772;2023-09-19T00:18:13;5.20;;;1.20;;
5157;SDS011;2598;52.364;9.772;2023-09-19T00:20:40;4.07;;;1.10;;
5157;SDS011;2598;52.364;9.772;2023-09-19T00:23:07;3.80;;;0.93;;
5157;SDS011;2598;52.364;9.772;2023-09-19T00:25:36;4.90;;;1.50;;
5157;SDS011;2598;52.364;9.772;2023-09-19T00:28:05;11.70;;;1.57;;
5157;SDS011;2598;52.364;9.772;2023-09-19T00:30:32;5.40;;;1.90;;
5157;SDS011;2598;52.364;9.772;2023-09-19T00:32:58;4.97;;;1.97;;
5157;SDS011;2598;52.364;9.772;2023-09-19T00:35:26;6.13;;;2.10;;
5157;SDS011;2598;52.364;9.772;2023-09-19T00:37:52;4.10;;;1.33;;
5157;SDS011;2598;52.364;9.772;2023-09-19T00:40:18;3.80;;;1.33;;
5157;SDS011;2598;52.364;9.772;2023-09-19T00:42:45;4.17;;;1.63;;
5157;SDS011;2598;52.364;9.772;2023-09-19T00:45:11;4.47;;;1.90;;
5157;SDS011;2598;52.364;9.772;2023-09-19T00:47:40;4.03;;;1.53;;
5157;SDS011;2598;52.364;9.772;2023-09-19T00:50:06;4.27;;;1.63;;
5157;SDS011;2598;52.364;9.772;2023-09-19T00:52:34;8.03;;;2.20;;
5157;SDS011;2598;52.364;9.772;2023-09-19T00:55:04;5.03;;;2.20;;
5157;SDS011;2598;52.364;9.772;2023-09-19T00:57:33;4.77;;;1.80;;
5157;SDS011;2598;52.364;9.772;2023-09-19T01:00:00;9.23;;;2.67;;
5157;SDS011;2598;52.364;9.772;2023-09-19T01:02:30;6.00;;;1.90;;
5157;SDS011;2598;52.364;9.772;2023-09-19T01:04:56;6.13;;;2.27;;
5157;SDS011;2598;52.364;9.772;2023-09-19T01:07:23;5.10;;;1.90;;
5157;SDS011;2598;52.364;9.772;2023-09-19T01:09:49;6.80;;;2.00;;
5157;SDS011;2598;52.364;9.772;2023-09-19T01:12:16;9.23;;;2.00;;
5157;SDS011;2598;52.364;9.772;2023-09-19T01:17:24;8.33;;;2.43;;
5157;SDS011;2598;52.364;9.772;2023-09-19T01:22:21;5.60;;;2.33;;
5157;SDS011;2598;52.364;9.772;2023-09-19T01:27:30;6.43;;;2.30;;
5157;SDS011;2598;52.364;9.772;2023-09-19T01:30:19;9.00;;;2.70;;
5157;SDS011;2598;52.364;9.772;2023-09-19T01:32:47;9.20;;;2.13;;
5157;SDS011;2598;52.364;9.772;2023-09-19T01:35:13;6.30;;;2.97;;
5157;SDS011;2598;52.364;9.772;2023-09-19T01:37:39;7.37;;;2.37;;
5157;SDS011;2598;52.364;9.772;2023-09-19T01:40:08;5.03;;;2.67;;
5157;SDS011;2598;52.364;9.772;2023-09-19T01:42:43;5.43;;;2.70;;
5157;SDS011;2598;52.364;9.772;2023-09-19T01:45:13;6.63;;;2.77;;
5157;SDS011;2598;52.364;9.772;2023-09-19T01:47:43;7.70;;;2.90;;
5157;SDS011;2598;52.364;9.772;2023-09-19T01:50:31;5.30;;;2.47;;
5157;SDS011;2598;52.364;9.772;2023-09-19T01:53:02;8.77;;;2.70;;
5157;SDS011;2598;52.364;9.772;2023-09-19T01:55:29;9.60;;;2.60;;
5157;SDS011;2598;52.364;9.772;2023-09-19T01:58:01;7.33;;;2.80;;
5157;SDS011;2598;52.364;9.772;2023-09-19T02:00:30;10.47;;;4.03;;
5157;SDS011;2598;52.364;9.772;2023-09-19T02:02:58;6.00;;;2.80;;
5157;SDS011;2598;52.364;9.772;2023-09-19T02:05:25;10.83;;;2.70;;
5157;SDS011;2598;52.364;9.772;2023-09-19T02:07:52;8.37;;;2.70;;
5157;SDS011;2598;52.364;9.772;2023-09-19T02:10:19;7.80;;;3.00;;
5157;SDS011;2598;52.364;9.772;2023-09-19T02:12:45;12.30;;;2.70;;
5157;SDS011;2598;52.364;9.772;2023-09-19T02:15:11;7.30;;;2.67;;
5157;SDS011;2598;52.364;9.772;2023-09-19T02:17:40;8.40;;;3.07;;
5157;SDS011;2598;52.364;9.772;2023-09-19T02:20:07;8.60;;;2.93;;
5157;SDS011;2598;52.364;9.772;2023-09-19T02:22:35;6.50;;;2.73;;
5157;SDS011;2598;52.364;9.772;2023-09-19T02:25:01;6.00;;;2.43;;
5157;SDS011;2598;52.364;9.772;2023-09-19T02:27:27;11.23;;;2.70;;
5157;SDS011;2598;52.364;9.772;2023-09-19T02:29:53;7.40;;;2.90;;
5157;SDS011;2598;52.364;9.772;2023-09-19T02:32:19;5.83;;;3.07;;
5157;SDS011;2598;52.364;9.772;2023-09-19T02:34:45;5.53;;;2.60;;
5157;SDS011;2598;52.364;9.772;2023-09-19T02:37:11;8.17;;;2.67;;
5157;SDS011;2598;52.364;9.772;2023-09-19T02:39:38;8.33;;;3.30;;
5157;SDS011;2598;52.364;9.772;2023-09-19T02:42:04;7.10;;;2.93;;
5157;SDS011;2598;52.364;9.772;2023-09-19T02:44:30;9.73;;;3.23;;
5157;SDS011;2598;52.364;9.772;2023-09-19T02:46:56;7.53;;;3.17;;
5157;SDS011;2598;52.364;9.772;2023-09-19T02:49:22;6.77;;;3.10;;
5157;SDS011;2598;52.364;9.772;2023-09-19T02:51:48;8.10;;;3.50;;
5157;SDS011;2598;52.364;9.772;2023-09-19T02:54:14;9.20;;;3.70;;
5157;SDS011;2598;52.364;9.772;2023-09-19T02:56:44;6.43;;;3.00;;
5157;SDS011;2598;52.364;9.772;2023-09-19T02:59:10;14.63;;;3.40;;
5157;SDS011;2598;52.364;9.772;2023-09-19T03:01:36;8.40;;;3.20;;
5157;SDS011;2598;52.364;9.772;2023-09-19T03:04:03;7.40;;;3.00;;
5157;SDS011;2598;52.364;9.772;2023-09-19T03:06:33;8.73;;;3.50;;
5157;SDS011;2598;52.364;9.772;2023-09-19T03:08:59;6.37;;;3.30;;
5157;SDS011;2598;52.364;9.772;2023-09-19T03:11:25;6.90;;;3.20;;
5157;SDS011;2598;52.364;9.772;2023-09-19T03:13:52;6.70;;;2.77;;
5157;SDS011;2598;52.364;9.772;2023-09-19T03:16:18;9.30;;;3.90;;
5157;SDS011;2598;52.364;9.772;2023-09-19T03:18:47;8.30;;;3.13;;
5157;SDS011;2598;52.364;9.772;2023-09-19T03:21:13;9.03;;;2.83;;
5157;SDS011;2598;52.364;9.772;2023-09-19T03:23:39;6.53;;;3.00;;
5157;SDS011;2598;52.364;9.772;2023-09-19T03:26:05;7.50;;;2.77;;
5157;SDS011;2598;52.364;9.772;2023-09-19T03:28:33;9.47;;;2.53;;
5157;SDS011;2598;52.364;9.772;2023-09-19T03:31:03;7.57;;;2.80;;
5157;SDS011;2598;52.364;9.772;2023-09-19T03:33:30;6.03;;;2.63;;
5157;SDS011;2598;52.364;9.772;2023-09-19T03:35:59;6.57;;;2.63;;
5157;SDS011;2598;52.364;9.772;2023-09-19T03:38:25;14.03;;;2.40;;
5157;SDS011;2598;52.364;9.772;2023-09-19T03:40:52;5.00;;;1.90;;
5157;SDS011;2598;52.364;9.772;2023-09-19T03:43:18;7.73;;;2.30;;
5157;SDS011;2598;52.364;9.772;2023-09-19T03:45:44;7.53;;;2.57;;
5157;SDS011;2598;52.364;9.772;2023-09-19T03:48:11;7.93;;;2.83;;
5157;SDS011;2598;52.364;9.772;2023-09-19T03:50:38;9.23;;;2.80;;
5157;SDS011;2598;52.364;9.772;2023-09-19T03:53:04;9.80;;;3.10;;
5157;SDS011;2598;52.364;9.772;2023-09-19T03:55:31;10.40;;;2.30;;
5157;SDS011;2598;52.364;9.772;2023-09-19T03:57:57;11.10;;;2.70;;
5157;SDS011;2598;52.364;9.772;2023-09-19T04:00:23;8.30;;;2.90;;
5157;SDS011;2598;52.364;9.772;2023-09-19T04:02:51;14.27;;;3.13;;
5157;SDS011;2598;52.364;9.772;2023-09-19T04:05:17;8.40;;;2.90;;
5157;SDS011;2598;52.364;9.772;2023-09-19T04:07:44;9.07;;;2.60;;
5157;SDS011;2598;52.364;9.772;2023-09-19T04:10:10;7.77;;;3.00;;
5157;SDS011;2598;52.364;9.772;2023-09-19T04:12:39;6.63;;;2.17;;
5157;SDS011;2598;52.364;9.772;2023-09-19T04:15:06;9.80;;;2.60;;
5157;SDS011;2598;52.364;9.772;2023-09-19T04:17:32;9.90;;;2.37;;
5157;SDS011;2598;52.364;9.772;2023-09-19T04:19:58;9.80;;;2.83;;
5157;SDS011;2598;52.364;9.772;2023-09-19T04:22:24;8.90;;;2.67;;
5157;SDS011;2598;52.364;9.772;2023-09-19T04:24:50;8.10;;;2.37;;
5157;SDS011;2598;52.364;9.772;2023-09-19T04:27:16;8.17;;;2.97;;
5157;SDS011;2598;52.364;9.772;2023-09-19T04:29:43;16.67;;;2.60;;
5157;SDS011;2598;52.364;9.772;2023-09-19T04:32:09;8.83;;;2.37;;
5157;SDS011;2598;52.364;9.772;2023-09-19T04:34:35;12.67;;;3.07;;
5157;SDS011;2598;52.364;9.772;2023-09-19T04:37:03;8.87;;;2.67;;
5157;SDS011;2598;52.364;9.772;2023-09-19T04:39:29;8.50;;;2.70;;
5157;SDS011;2598;52.364;9.772;2023-09-19T04:41:55;8.97;;;2.80;;
5157;SDS011;2598;52.364;9.772;2023-09-19T04:44:22;7.40;;;2.47;;
5157;SDS011;2598;52.364;9.772;2023-09-19T04:46:47;7.07;;;2.50;;
5157;SDS011;2598;52.364;9.772;2023-09-19T04:49:13;10.30;;;2.17;;
5157;SDS011;2598;52.364;9.772;2023-09-19T04:51:39;6.63;;;2.30;;
5157;SDS011;2598;52.364;9.772;2023-09-19T04:54:05;6.83;;;2.40;;
5157;SDS011;2598;52.364;9.772;2023-09-19T04:56:31;8.77;;;3.00;;
5157;SDS011;2598;52.364;9.772;2023-09-19T04:58:58;9.07;;;2.97;;
5157;SDS011;2598;52.364;9.772;2023-09-19T05:01:25;14.43;;;3.60;;
5157;SDS011;2598;52.364;9.772;2023-09-19T05:03:51;8.87;;;3.70;;
5157;SDS011;2598;52.364;9.772;2023-09-19T05:06:21;8.50;;;3.10;;
5157;SDS011;2598;52.364;9.772;2023-09-19T05:08:47;12.27;;;3.67;;
5157;SDS011;2598;52.364;9.772;2023-09-19T05:11:18;11.53;;;4.03;;
5157;SDS011;2598;52.364;9.772;2023-09-19T05:13:44;9.70;;;3.63;;
5157;SDS011;2598;52.364;9.772;2023-09-19T05:16:10;7.47;;;3.40;;
5157;SDS011;2598;52.364;9.772;2023-09-19T05:18:37;10.23;;;4.00;;
5157;SDS011;2598;52.364;9.772;2023-09-19T05:21:03;9.20;;;4.03;;
5157;SDS011;2598;52.364;9.772;2023-09-19T05:23:29;10.13;;;4.23;;
5157;SDS011;2598;52.364;9.772;2023-09-19T05:25:56;9.20;;;3.80;;
5157;SDS011;2598;52.364;9.772;2023-09-19T05:28:23;11.50;;;3.70;;
5157;SDS011;2598;52.364;9.772;2023-09-19T05:30:49;8.33;;;3.90;;
5157;SDS011;2598;52.364;9.772;2023-09-19T05:33:15;11.63;;;3.97;;
5157;SDS011;2598;52.364;9.772;2023-09-19T05:35:43;12.03;;;3.40;;
5157;SDS011;2598;52.364;9.772;2023-09-19T05:38:12;10.50;;;3.37;;
5157;SDS011;2598;52.364;9.772;2023-09-19T05:40:39;12.13;;;3.87;;
5157;SDS011;2598;52.364;9.772;2023-09-19T05:43:07;9.90;;;4.63;;
5157;SDS011;2598;52.364;9.772;2023-09-19T05:45:33;10.50;;;3.73;;
5157;SDS011;2598;52.364;9.772;2023-09-19T05:48:07;12.93;;;3.43;;
5157;SDS011;2598;52.364;9.772;2023-09-19T05:50:33;14.13;;;4.70;;
5157;SDS011;2598;52.364;9.772;2023-09-19T05:52:59;11.27;;;5.10;;
5157;SDS011;2598;52.364;9.772;2023-09-19T05:55:25;9.10;;;3.80;;
5157;SDS011;2598;52.364;9.772;2023-09-19T05:57:53;10.10;;;4.10;;
5157;SDS011;2598;52.364;9.772;2023-09-19T06:00:20;11.43;;;3.60;;
5157;SDS011;2598;52.364;9.772;2023-09-19T06:02:50;9.03;;;4.00;;
5157;SDS011;2598;52.364;9.772;2023-09-19T06:05:18;11.47;;;4.37;;
5157;SDS011;2598;52.364;9.772;2023-09-19T06:07:45;10.30;;;3.77;;
5157;SDS011;2598;52.364;9.772;2023-09-19T06:10:11;12.90;;;4.30;;
5157;SDS011;2598;52.364;9.772;2023-09-19T06:12:38;7.47;;;3.00;;
5157;SDS011;2598;52.364;9.772;2023-09-19T06:15:04;10.03;;;4.17;;
5157;SDS011;2598;52.364;9.772;2023-09-19T06:17:33;10.17;;;3.70;;
5157;SDS011;2598;52.364;9.772;2023-09-19T06:20:02;12.80;;;3.60;;
5157;SDS011;2598;52.364;9.772;2023-09-19T06:22:29;8.77;;;3.33;;
5157;SDS011;2598;52.364;9.772;2023-09-19T06:24:55;11.00;;;3.30;;
5157;SDS011;2598;52.364;9.772;2023-09-19T06:27:21;10.90;;;3.90;;
5157;SDS011;2598;52.364;9.772;2023-09-19T06:29:47;7.87;;;3.37;;
5157;SDS011;2598;52.364;9.772;2023-09-19T06:32:13;8.40;;;3.47;;
5157;SDS011;2598;52.364;9.772;2023-09-19T06:34:39;11.40;;;3.90;;
5157;SDS011;2598;52.364;9.772;2023-09-19T06:37:08;10.63;;;3.83;;
5157;SDS011;2598;52.364;9.772;2023-09-19T06:39:34;7.73;;;3.60;;
5157;SDS011;2598;52.364;9.772;2023-09-19T06:41:59;9.33;;;3.37;;
5157;SDS011;2598;52.364;9.772;2023-09-19T06:44:26;8.87;;;3.30;;
5157;SDS011;2598;52.364;9.772;2023-09-19T06:46:54;10.40;;;3.50;;
5157;SDS011;2598;52.364;9.772;2023-09-19T06:49:20;11.23;;;3.17;;
5157;SDS011;2598;52.364;9.772;2023-09-19T06:51:46;8.40;;;3.07;;
5157;SDS011;2598;52.364;9.772;2023-09-19T06:54:12;12.67;;;4.13;;
5157;SDS011;2598;52.364;9.772;2023-09-19T06:56:38;17.40;;;3.50;;
5157;SDS011;2598;52.364;9.772;2023-09-19T06:59:04;14.43;;;3.27;;
5157;SDS011;2598;52.364;9.772;2023-09-19T07:01:32;12.57;;;3.07;;
5157;SDS011;2598;52.364;9.772;2023-09-19T07:03:58;10.53;;;3.70;;
5157;SDS011;2598;52.364;9.772;2023-09-19T07:06:24;8.83;;;2.93;;
5157;SDS011;2598;52.364;9.772;2023-09-19T07:08:50;11.20;;;3.00;;
5157;SDS011;2598;52.364;9.772;2023-09-19T07:11:16;12.87;;;3.03;;
5157;SDS011;2598;52.364;9.772;2023-09-19T07:13:42;8.53;;;2.40;;
5157;SDS011;2598;52.364;9.772;2023-09-19T07:16:08;9.07;;;2.53;;
5157;SDS011;2598;52.364;9.772;2023-09-19T07:18:52;14.43;;;2.50;;
5157;SDS011;2598;52.364;9.772;2023-09-19T07:21:17;7.83;;;2.87;;
5157;SDS011;2598;52.364;9.772;2023-09-19T07:23:43;15.67;;;2.77;;
5157;SDS011;2598;52.364;9.772;2023-09-19T07:26:09;7.93;;;2.40;;
5157;SDS011;2598;52.364;9.772;2023-09-19T07:28:35;10.20;;;2.40;;
5157;SDS011;2598;52.364;9.772;2023-09-19T07:31:02;9.33;;;2.23;;
5157;SDS011;2598;52.364;9.772;2023-09-19T07:33:34;8.17;;;2.57;;
5157;SDS011;2598;52.364;9.772;2023-09-19T07:36:01;9.80;;;1.73;;
5157;SDS011;2598;52.364;9.772;2023-09-19T07:38:26;7.47;;;1.70;;
5157;SDS011;2598;52.364;9.772;2023-09-19T07:40:52;7.93;;;2.50;;
5157;SDS011;2598;52.364;9.772;2023-09-19T07:43:20;13.33;;;2.40;;
5157;SDS011;2598;52.364;9.772;2023-09-19T07:45:46;5.50;;;1.80;;
5157;SDS011;2598;52.364;9.772;2023-09-19T07:48:13;11.90;;;2.27;;
5157;SDS011;2598;52.364;9.772;2023-09-19T07:50:40;8.50;;;1.93;;
5157;SDS011;2598;52.364;9.772;2023-09-19T07:53:09;9.67;;;2.50;;
5157;SDS011;2598;52.364;9.772;2023-09-19T07:55:35;10.03;;;2.10;;
5157;SDS011;2598;52.364;9.772;2023-09-19T07:58:01;10.07;;;2.00;;
5157;SDS011;2598;52.364;9.772;2023-09-19T08:00:29;8.00;;;1.97;;
5157;SDS011;2598;52.364;9.772;2023-09-19T08:02:55;8.53;;;1.80;;
5157;SDS011;2598;52.364;9.772;2023-09-19T08:05:21;9.70;;;2.00;;
5157;SDS011;2598;52.364;9.772;2023-09-19T08:07:47;6.10;;;1.73;;
5157;SDS011;2598;52.364;9.772;2023-09-19T08:10:13;6.80;;;2.10;;
5157;SDS011;2598;52.364;9.772;2023-09-19T08:12:41;7.10;;;1.50;;
5157;SDS011;2598;52.364;9.772;2023-09-19T08:15:14;7.40;;;1.77;;
5157;SDS011;2598;52.364;9.772;2023-09-19T08:17:40;12.50;;;2.57;;
5157;SDS011;2598;52.364;9.772;2023-09-19T08:20:06;9.53;;;1.67;;
5157;SDS011;2598;52.364;9.772;2023-09-19T08:22:32;6.40;;;1.97;;
5157;SDS011;2598;52.364;9.772;2023-09-19T08:24:59;9.23;;;2.70;;
5157;SDS011;2598;52.364;9.772;2023-09-19T08:27:26;10.07;;;2.10;;
5157;SDS011;2598;52.364;9.772;2023-09-19T08:29:53;7.37;;;2.17;;
5157;SDS011;2598;52.364;9.772;2023-09-19T08:32:19;5.63;;;1.60;;
5157;SDS011;2598;52.364;9.772;2023-09-19T08:34:49;7.03;;;1.37;;
5157;SDS011;2598;52.364;9.772;2023-09-19T08:37:15;6.50;;;1.83;;
5157;SDS011;2598;52.364;9.772;2023-09-19T08:39:43;7.30;;;1.73;;
5157;SDS011;2598;52.364;9.772;2023-09-19T08:42:09;11.27;;;2.60;;
5157;SDS011;2598;52.364;9.772;2023-09-19T08:44:37;6.10;;;1.80;;
5157;SDS011;2598;52.364;9.772;2023-09-19T08:47:14;9.40;;;2.00;;
5157;SDS011;2598;52.364;9.772;2023-09-19T08:49:53;6.97;;;1.77;;
5157;SDS011;2598;52.364;9.772;2023-09-19T08:52:27;6.87;;;1.97;;
5157;SDS011;2598;52.364;9.772;2023-09-19T08:54:54;6.97;;;1.70;;
5157;SDS011;2598;52.364;9.772;2023-09-19T08:57:23;7.50;;;1.63;;
5157;SDS011;2598;52.364;9.772;2023-09-19T08:59:50;7.80;;;1.73;;
5157;SDS011;2598;52.364;9.772;2023-09-19T09:02:16;8.20;;;2.23;;
5157;SDS011;2598;52.364;9.772;2023-09-19T09:04:44;7.87;;;1.90;;
5157;SDS011;2598;52.364;9.772;2023-09-19T09:07:11;9.10;;;2.17;;
5157;SDS011;2598;52.364;9.772;2023-09-19T09:09:44;8.40;;;1.73;;
5157;SDS011;2598;52.364;9.772;2023-09-19T09:12:13;6.40;;;2.00;;
5157;SDS011;2598;52.364;9.772;2023-09-19T09:14:42;6.60;;;2.03;;
5157;SDS011;2598;52.364;9.772;2023-09-19T09:17:10;9.37;;;2.00;;
5157;SDS011;2598;52.364;9.772;2023-09-19T09:19:37;7.50;;;1.90;;
5157;SDS011;2598;52.364;9.772;2023-09-19T09:22:09;7.17;;;2.10;;
5157;SDS011;2598;52.364;9.772;2023-09-19T09:24:35;5.53;;;1.53;;
5157;SDS011;2598;52.364;9.772;2023-09-19T09:27:04;4.90;;;1.50;;
5157;SDS011;2598;52.364;9.772;2023-09-19T09:29:47;8.67;;;1.70;;
5157;SDS011;2598;52.364;9.772;2023-09-19T09:34:43;10.40;;;1.93;;
5157;SDS011;2598;52.364;9.772;2023-09-19T09:37:13;7.83;;;2.20;;
5157;SDS011;2598;52.364;9.772;2023-09-19T09:39:40;8.97;;;1.80;;
5157;SDS011;2598;52.364;9.772;2023-09-19T09:42:06;9.00;;;1.90;;
5157;SDS011;2598;52.364;9.772;2023-09-19T09:44:32;10.40;;;1.83;;
5157;SDS011;2598;52.364;9.772;2023-09-19T09:46:58;13.00;;;1.97;;
5157;SDS011;2598;52.364;9.772;2023-09-19T09:49:47;9.07;;;2.10;;
5157;SDS011;2598;52.364;9.772;2023-09-19T09:52:19;8.73;;;1.70;;
5157;SDS011;2598;52.364;9.772;2023-09-19T09:57:45;9.90;;;2.10;;
5157;SDS011;2598;52.364;9.772;2023-09-19T10:00:11;10.10;;;1.87;;
5157;SDS011;2598;52.364;9.772;2023-09-19T10:02:37;7.60;;;2.00;;
5157;SDS011;2598;52.364;9.772;2023-09-19T10:07:53;6.87;;;1.70;;
5157;SDS011;2598;52.364;9.772;2023-09-19T10:10:33;5.50;;;1.50;;
5157;SDS011;2598;52.364;9.772;2023-09-19T10:13:18;6.50;;;1.77;;
5157;SDS011;2598;52.364;9.772;2023-09-19T10:15:50;8.40;;;2.17;;
5157;SDS011;2598;52.364;9.772;2023-09-19T10:18:19;9.53;;;2.33;;
5157;SDS011;2598;52.364;9.772;2023-09-19T10:20:45;9.60;;;1.80;;
5157;SDS011;2598;52.364;9.772;2023-09-19T10:23:13;8.20;;;1.97;;
5157;SDS011;2598;52.364;9.772;2023-09-19T10:25:40;9.13;;;1.80;;
5157;SDS011;2598;52.364;9.772;2023-09-19T10:28:07;8.67;;;2.00;;
5157;SDS011;2598;52.364;9.772;2023-09-19T10:30:45;7.13;;;2.60;;
5157;SDS011;2598;52.364;9.772;2023-09-19T10:33:12;6.47;;;1.80;;
5157;SDS011;2598;52.364;9.772;2023-09-19T10:35:40;10.53;;;1.90;;
5157;SDS011;2598;52.364;9.772;2023-09-19T10:38:08;8.20;;;2.00;;
5157;SDS011;2598;52.364;9.772;2023-09-19T10:40:35;7.80;;;1.97;;
5157;SDS011;2598;52.364;9.772;2023-09-19T10:43:05;6.17;;;2.10;;
5157;SDS011;2598;52.364;9.772;2023-09-19T10:45:35;9.40;;;2.30;;
5157;SDS011;2598;52.364;9.772;2023-09-19T10:48:04;9.70;;;2.37;;
5157;SDS011;2598;52.364;9.772;2023-09-19T10:50:33;10.20;;;2.03;;
5157;SDS011;2598;52.364;9.772;2023-09-19T10:53:02;8.63;;;1.90;;
5157;SDS011;2598;52.364;9.772;2023-09-19T10:55:30;6.03;;;1.73;;
5157;SDS011;2598;52.364;9.772;2023-09-19T10:57:57;12.53;;;3.20;;
5157;SDS011;2598;52.364;9.772;2023-09-19T11:00:25;7.00;;;1.80;;
5157;SDS011;2598;52.364;9.772;2023-09-19T11:05:36;6.07;;;2.13;;
5157;SDS011;2598;52.364;9.772;2023-09-19T11:08:06;8.83;;;1.87;;
5157;SDS011;2598;52.364;9.772;2023-09-19T11:10:48;5.37;;;1.60;;
5157;SDS011;2598;52.364;9.772;2023-09-19T11:13:28;5.13;;;1.80;;
5157;SDS011;2598;52.364;9.772;2023-09-19T11:26:50;12.20;;;2.40;;
5157;SDS011;2598;52.364;9.772;2023-09-19T11:29:32;9.17;;;2.40;;
5157;SDS011;2598;52.364;9.772;2023-09-19T11:31:58;5.67;;;1.70;;
5157;SDS011;2598;52.364;9.772;2023-09-19T11:39:36;9.57;;;1.87;;
5157;SDS011;2598;52.364;9.772;2023-09-19T11:42:30;9.83;;;2.37;;
5157;SDS011;2598;52.364;9.772;2023-09-19T11:44:51;5.47;;;1.83;;
5157;SDS011;2598;52.364;9.772;2023-09-19T11:47:20;14.80;;;2.70;;
5157;SDS011;2598;52.364;9.772;2023-09-19T11:49:49;8.20;;;2.10;;
5157;SDS011;2598;52.364;9.772;2023-09-19T11:52:21;7.40;;;2.10;;
5157;SDS011;2598;52.364;9.772;2023-09-19T11:54:54;9.27;;;2.23;;
5157;SDS011;2598;52.364;9.772;2023-09-19T11:57:21;6.20;;;1.83;;
5157;SDS011;2598;52.364;9.772;2023-09-19T11:59:48;7.60;;;2.20;;
5157;SDS011;2598;52.364;9.772;2023-09-19T12:02:17;10.70;;;2.43;;
5157;SDS011;2598;52.364;9.772;2023-09-19T12:04:53;8.93;;;1.90;;
5157;SDS011;2598;52.364;9.772;2023-09-19T12:07:20;5.03;;;1.63;;
5157;SDS011;2598;52.364;9.772;2023-09-19T12:09:50;5.70;;;1.77;;
5157;SDS011;2598;52.364;9.772;2023-09-19T12:14:49;5.50;;;2.23;;
5157;SDS011;2598;52.364;9.772;2023-09-19T12:17:15;8.30;;;2.47;;
5157;SDS011;2598;52.364;9.772;2023-09-19T12:19:49;8.13;;;2.00;;
5157;SDS011;2598;52.364;9.772;2023-09-19T12:22:16;4.87;;;1.80;;
5157;SDS011;2598;52.364;9.772;2023-09-19T12:24:44;6.90;;;2.27;;
5157;SDS011;2598;52.364;9.772;2023-09-19T12:27:10;7.27;;;2.00;;
5157;SDS011;2598;52.364;9.772;2023-09-19T12:29:47;6.10;;;1.73;;
5157;SDS011;2598;52.364;9.772;2023-09-19T12:32:35;7.90;;;2.07;;
5157;SDS011;2598;52.364;9.772;2023-09-19T12:35:05;7.70;;;2.13;;
5157;SDS011;2598;52.364;9.772;2023-09-19T12:37:36;6.57;;;1.87;;
5157;SDS011;2598;52.364;9.772;2023-09-19T12:40:06;5.97;;;2.03;;
5157;SDS011;2598;52.364;9.772;2023-09-19T12:42:47;7.47;;;2.07;;
5157;SDS011;2598;52.364;9.772;2023-09-19T12:45:13;6.50;;;2.07;;
5157;SDS011;2598;52.364;9.772;2023-09-19T12:47:41;8.43;;;2.30;;
5157;SDS011;2598;52.364;9.772;2023-09-19T12:50:27;8.97;;;2.53;;
5157;SDS011;2598;52.364;9.772;2023-09-19T12:52:54;8.40;;;2.70;;
5157;SDS011;2598;52.364;9.772;2023-09-19T12:55:28;9.87;;;2.20;;
5157;SDS011;2598;52.364;9.772;2023-09-19T12:58:08;10.27;;;2.17;;
5157;SDS011;2598;52.364;9.772;2023-09-19T13:03:16;12.53;;;1.93;;
5157;SDS011;2598;52.364;9.772;2023-09-19T13:08:34;8.90;;;2.20;;
5157;SDS011;2598;52.364;9.772;2023-09-19T13:13:34;6.73;;;1.77;;
5157;SDS011;2598;52.364;9.772;2023-09-19T13:16:01;8.07;;;2.10;;
5157;SDS011;2598;52.364;9.772;2023-09-19T13:18:28;6.20;;;1.70;;
5157;SDS011;2598;52.364;9.772;2023-09-19T13:21:10;7.53;;;2.00;;
5157;SDS011;2598;52.364;9.772;2023-09-19T13:23:50;5.70;;;1.77;;
5157;SDS011;2598;52.364;9.772;2023-09-19T13:26:16;7.30;;;2.20;;
5157;SDS011;2598;52.364;9.772;2023-09-19T13:28:41;9.43;;;2.57;;
5157;SDS011;2598;52.364;9.772;2023-09-19T13:31:09;7.23;;;2.07;;
5157;SDS011;2598;52.364;9.772;2023-09-19T13:33:45;6.40;;;2.20;;
5157;SDS011;2598;52.364;9.772;2023-09-19T13:36:11;7.77;;;2.10;;
5157;SDS011;2598;52.364;9.772;2023-09-19T13:38:38;8.23;;;2.30;;
5157;SDS011;2598;52.364;9.772;2023-09-19T13:41:05;8.23;;;1.90;;
5157;SDS011;2598;52.364;9.772;2023-09-19T13:43:31;9.93;;;2.43;;
5157;SDS011;2598;52.364;9.772;2023-09-19T13:45:57;6.67;;;2.03;;
5157;SDS011;2598;52.364;9.772;2023-09-19T13:48:23;9.43;;;2.20;;
5157;SDS011;2598;52.364;9.772;2023-09-19T13:50:49;8.37;;;2.43;;
5157;SDS011;2598;52.364;9.772;2023-09-19T13:53:16;7.20;;;2.23;;
5157;SDS011;2598;52.364;9.772;2023-09-19T13:55:42;6.70;;;2.13;;
5157;SDS011;2598;52.364;9.772;2023-09-19T13:58:08;6.07;;;1.80;;
5157;SDS011;2598;52.364;9.772;2023-09-19T14:00:36;6.87;;;1.87;;
5157;SDS011;2598;52.364;9.772;2023-09-19T14:03:03;9.60;;;2.93;;
5157;SDS011;2598;52.364;9.772;2023-09-19T14:05:29;5.93;;;2.07;;
5157;SDS011;2598;52.364;9.772;2023-09-19T14:07:56;6.03;;;2.10;;
5157;SDS011;2598;52.364;9.772;2023-09-19T14:10:24;8.40;;;2.40;;
5157;SDS011;2598;52.364;9.772;2023-09-19T14:12:52;7.47;;;2.00;;
5157;SDS011;2598;52.364;9.772;2023-09-19T14:15:18;11.23;;;2.10;;
5157;SDS011;2598;52.364;9.772;2023-09-19T14:17:44;6.23;;;1.83;;
5157;SDS011;2598;52.364;9.772;2023-09-19T14:20:11;6.27;;;1.63;;
5157;SDS011;2598;52.364;9.772;2023-09-19T14:22:37;7.37;;;2.40;;
5157;SDS011;2598;52.364;9.772;2023-09-19T14:25:04;9.07;;;2.17;;
5157;SDS011;2598;52.364;9.772;2023-09-19T14:27:30;7.53;;;2.20;;
5157;SDS011;2598;52.364;9.772;2023-09-19T14:29:56;6.50;;;2.20;;
5157;SDS011;2598;52.364;9.772;2023-09-19T14:32:22;11.37;;;2.27;;
5157;SDS011;2598;52.364;9.772;2023-09-19T14:34:48;6.30;;;2.03;;
5157;SDS011;2598;52.364;9.772;2023-09-19T14:37:14;12.07;;;2.20;;
5157;SDS011;2598;52.364;9.772;2023-09-19T14:39:46;9.53;;;2.53;;
5157;SDS011;2598;52.364;9.772;2023-09-19T14:42:12;5.90;;;2.77;;
5157;SDS011;2598;52.364;9.772;2023-09-19T14:44:42;6.33;;;2.23;;
5157;SDS011;2598;52.364;9.772;2023-09-19T14:47:08;11.37;;;2.30;;
5157;SDS011;2598;52.364;9.772;2023-09-19T14:49:34;6.90;;;2.43;;
5157;SDS011;2598;52.364;9.772;2023-09-19T14:52:03;6.93;;;1.97;;
5157;SDS011;2598;52.364;9.772;2023-09-19T14:54:29;5.87;;;1.97;;
5157;SDS011;2598;52.364;9.772;2023-09-19T14:56:56;5.70;;;2.00;;
5157;SDS011;2598;52.364;9.772;2023-09-19T14:59:32;8.17;;;1.80;;
5157;SDS011;2598;52.364;9.772;2023-09-19T15:01:59;7.23;;;2.30;;
5157;SDS011;2598;52.364;9.772;2023-09-19T15:04:25;6.70;;;1.90;;
5157;SDS011;2598;52.364;9.772;2023-09-19T15:06:51;10.90;;;2.63;;
5157;SDS011;2598;52.364;9.772;2023-09-19T15:09:20;9.13;;;2.10;;
5157;SDS011;2598;52.364;9.772;2023-09-19T15:11:46;9.63;;;2.40;;
5157;SDS011;2598;52.364;9.772;2023-09-19T15:14:12;9.83;;;2.40;;
5157;SDS011;2598;52.364;9.772;2023-09-19T15:16:38;6.07;;;1.90;;
5157;SDS011;2598;52.364;9.772;2023-09-19T15:19:05;7.20;;;1.77;;
5157;SDS011;2598;52.364;9.772;2023-09-19T15:21:32;9.07;;;2.20;;
5157;SDS011;2598;52.364;9.772;2023-09-19T15:23:58;6.27;;;2.07;;
5157;SDS011;2598;52.364;9.772;2023-09-19T15:26:24;9.47;;;2.13;;
5157;SDS011;2598;52.364;9.772;2023-09-19T15:28:50;9.97;;;2.10;;
5157;SDS011;2598;52.364;9.772;2023-09-19T15:31:16;6.53;;;2.03;;
5157;SDS011;2598;52.364;9.772;2023-09-19T15:33:42;7.43;;;2.70;;
5157;SDS011;2598;52.364;9.772;2023-09-19T15:36:09;6.47;;;2.33;;
5157;SDS011;2598;52.364;9.772;2023-09-19T15:41:21;5.13;;;1.90;;
5157;SDS011;2598;52.364;9.772;2023-09-19T15:43:47;12.40;;;2.13;;
5157;SDS011;2598;52.364;9.772;2023-09-19T15:46:13;7.20;;;2.03;;
5157;SDS011;2598;52.364;9.772;2023-09-19T15:48:40;5.30;;;1.60;;
5157;SDS011;2598;52.364;9.772;2023-09-19T15:51:06;5.97;;;1.50;;
5157;SDS011;2598;52.364;9.772;2023-09-19T15:53:41;5.50;;;1.67;;
5157;SDS011;2598;52.364;9.772;2023-09-19T15:56:09;10.20;;;2.07;;
5157;SDS011;2598;52.364;9.772;2023-09-19T15:58:35;6.93;;;2.17;;
5157;SDS011;2598;52.364;9.772;2023-09-19T16:01:07;5.77;;;1.70;;
5157;SDS011;2598;52.364;9.772;2023-09-19T16:03:36;7.87;;;1.47;;
5157;SDS011;2598;52.364;9.772;2023-09-19T16:06:09;6.10;;;1.50;;